»·PEaware :: WAT397 KSBA-KPMD

WAT397 :: KSBA-KPMD

FLIGHT INFORMATION

Flight Status: Arrived
Operator:
Walker Air Transport
More flights by this operator :: More flights under this callsign
Pilot: Ricardo M. (29263)
Aircraft: BEECH AIRCRAFT SUPER KING AIR 350
(B350)
More flights by this aircraft type
Origin: KSBA Santa Barbara Mun
United States
Destination: KPMD Palmdale AF Plant 42
United States
More flights between these airports :: More routes between these airports
Route: RZS V12 PMD
File this flight plan on PilotEdge
Remarks:
Altitude:
(Current/Filed)
11,000ft
Speed:
(Current/Filed)
250kts
Departed: 14-Nov-20 08:55 PM
Arrived: 14-Nov-20 09:30 PM
Distance/Time
Traveled:
87nm/0:35
Distance/Time
To Go:
Arrived

Flight Plot

Page will automatically refresh every two minutes.

Flight plan parsing failed; only flown route is shown


Map Options




Map Legend


Flown Route
Filed Route
Departure Airport
Arrival Airport
Navaid (VOR, NDB)
Fix

Horizontal Profiles

Position Reports

Time Latitude Longitude Heading Altitude Ground
Speed
14-Nov-20 20:24 34.425691 -119.837370 97 13ft 0kts
14-Nov-20 20:25 34.425691 -119.837370 97 13ft 0kts
14-Nov-20 20:26 34.425691 -119.837370 97 13ft 0kts
14-Nov-20 20:27 34.425691 -119.837370 97 13ft 0kts
14-Nov-20 20:28 34.425691 -119.837370 97 13ft 0kts
14-Nov-20 20:29 34.425691 -119.837370 97 13ft 0kts
14-Nov-20 20:30 34.425691 -119.837370 97 13ft 0kts
14-Nov-20 20:31 34.425691 -119.837370 97 13ft 0kts
14-Nov-20 20:32 34.425691 -119.837370 97 13ft 0kts
14-Nov-20 20:33 34.425691 -119.837370 97 13ft 0kts
14-Nov-20 20:34 34.425691 -119.837370 97 13ft 0kts
14-Nov-20 20:35 34.425691 -119.837370 97 13ft 0kts
14-Nov-20 20:36 34.425691 -119.837370 97 13ft 0kts
14-Nov-20 20:37 34.425691 -119.837370 97 13ft 0kts
14-Nov-20 20:38 34.425691 -119.837370 97 13ft 0kts
14-Nov-20 20:39 34.425691 -119.837370 97 13ft 0kts
14-Nov-20 20:40 34.425691 -119.837370 97 13ft 0kts
14-Nov-20 20:41 34.425691 -119.837370 97 13ft 0kts
14-Nov-20 20:42 34.425691 -119.837370 97 13ft 0kts
14-Nov-20 20:43 34.425691 -119.837370 97 13ft 0kts
14-Nov-20 20:44 34.425691 -119.837370 97 13ft 0kts
14-Nov-20 20:45 34.425691 -119.837370 97 13ft 0kts
14-Nov-20 20:46 34.425691 -119.837370 97 13ft 0kts
14-Nov-20 20:47 34.425691 -119.837370 97 13ft 0kts
14-Nov-20 20:48 34.425691 -119.837370 97 13ft 0kts
14-Nov-20 20:49 34.425691 -119.837370 97 13ft 0kts
14-Nov-20 20:50 34.425756 -119.837300 23 13ft 1kts
14-Nov-20 20:51 34.425865 -119.837499 357 13ft 3kts
14-Nov-20 20:52 34.427070 -119.835260 1 13ft 0kts
14-Nov-20 20:53 34.427874 -119.835703 271 15ft 0kts
14-Nov-20 20:54 34.427712 -119.843048 270 15ft 96kts
14-Nov-20 20:55 34.423382 -119.887930 261 1443ft 175kts
14-Nov-20 20:56 34.391774 -119.921433 151 3528ft 192kts
14-Nov-20 20:57 34.342658 -119.893294 152 5635ft 200kts
14-Nov-20 20:58 34.292604 -119.863338 142 7620ft 203kts
14-Nov-20 20:59 34.290372 -119.804033 69 9407ft 189kts
14-Nov-20 21:00 34.303270 -119.741517 70 11036ft 208kts
14-Nov-20 21:01 34.319357 -119.661898 71 11013ft 266kts
14-Nov-20 21:02 34.337767 -119.570999 71 11006ft 284kts
14-Nov-20 21:03 34.356725 -119.476850 71 11004ft 289kts
14-Nov-20 21:04 34.375838 -119.381539 71 11006ft 291kts
14-Nov-20 21:05 34.394590 -119.286220 73 11016ft 291kts
14-Nov-20 21:06 34.413555 -119.190542 72 11017ft 291kts
14-Nov-20 21:07 34.432387 -119.095531 72 11017ft 290kts
14-Nov-20 21:08 34.451145 -119.000528 72 11017ft 290kts
14-Nov-20 21:09 34.469856 -118.905356 72 11017ft 290kts
14-Nov-20 21:10 34.488507 -118.810061 72 11017ft 290kts
14-Nov-20 21:11 34.507045 -118.714922 72 11031ft 290kts
14-Nov-20 21:12 34.525445 -118.619703 72 11049ft 291kts
14-Nov-20 21:13 34.543881 -118.524290 73 10485ft 287kts
14-Nov-20 21:14 34.561837 -118.430388 74 8992ft 284kts
14-Nov-20 21:15 34.579518 -118.337451 75 7501ft 281kts
14-Nov-20 21:16 34.596178 -118.248939 74 6877ft 250kts
14-Nov-20 21:17 34.611076 -118.170406 74 6859ft 219kts
14-Nov-20 21:18 34.624332 -118.100456 74 6979ft 210kts
14-Nov-20 21:19 34.630918 -118.031272 86 6934ft 204kts
14-Nov-20 21:20 34.632375 -117.958234 87 5459ft 219kts
14-Nov-20 21:21 34.615742 -117.895267 129 4960ft 186kts
14-Nov-20 21:22 34.600134 -117.846588 41 4967ft 159kts
14-Nov-20 21:23 34.638304 -117.858283 326 4969ft 152kts
14-Nov-20 21:24 34.641903 -117.905928 267 4957ft 143kts
14-Nov-20 21:25 34.639261 -117.952691 268 4511ft 137kts
14-Nov-20 21:26 34.636854 -117.997599 267 3766ft 128kts
14-Nov-20 21:27 34.634569 -118.039209 268 3136ft 116kts
14-Nov-20 21:28 34.632445 -118.079163 266 2515ft 111kts
14-Nov-20 21:29 34.631471 -118.097246 274 2523ft 28kts
14-Nov-20 21:30 34.635876 -118.097935 2 2513ft 27kts
14-Nov-20 21:31 34.636480 -118.097931 359 2512ft 0kts
14-Nov-20 21:32 34.636480 -118.097931 359 2512ft 0kts
14-Nov-20 21:33 34.636480 -118.097931 359 2512ft 0kts
14-Nov-20 21:34 34.636480 -118.097931 359 2512ft 0kts
14-Nov-20 21:35 34.636480 -118.097931 359 2512ft 0kts
14-Nov-20 21:36 34.636480 -118.097931 359 2512ft 0kts
14-Nov-20 21:37 34.636480 -118.097931 359 2512ft 0kts
14-Nov-20 21:38 34.636480 -118.097931 359 2512ft 0kts
14-Nov-20 21:39 34.636480 -118.097931 359 2512ft 0kts
14-Nov-20 21:40 34.636480 -118.097931 359 2512ft 0kts

Navigation Log

Ident Type
Flight plan parsing failed, navigation log unavailable